createdAt,value
2022-08-07T00:00:40.184Z,2.90
2022-08-07T00:02:44.764Z,3.13
2022-08-07T00:04:47.588Z,2.50
2022-08-07T00:06:51.798Z,2.60
2022-08-07T00:08:55.373Z,2.50
2022-08-07T00:10:58.504Z,3.85
2022-08-07T00:13:17.467Z,3.73
2022-08-07T00:15:25.900Z,2.60
2022-08-07T00:17:41.291Z,2.90
2022-08-07T00:20:01.561Z,2.70
2022-08-07T00:22:06.756Z,3.10
2022-08-07T00:24:10.300Z,2.83
2022-08-07T00:26:31.426Z,2.90
2022-08-07T00:28:36.149Z,2.85
2022-08-07T00:30:48.786Z,4.57
2022-08-07T00:32:51.999Z,3.25
2022-08-07T00:34:56.185Z,2.67
2022-08-07T00:36:58.915Z,2.80
2022-08-07T00:39:02.115Z,2.40
2022-08-07T00:41:05.802Z,2.75
2022-08-07T00:44:01.217Z,2.53
2022-08-07T00:45:36.792Z,3.22
2022-08-07T00:48:10.243Z,3.15
2022-08-07T00:50:20.814Z,2.67
2022-08-07T00:52:26.733Z,3.08
2022-08-07T00:54:29.424Z,2.75
2022-08-07T00:56:33.890Z,3.08
2022-08-07T00:58:36.786Z,3.35
2022-08-07T01:00:53.765Z,3.00
2022-08-07T01:02:56.964Z,2.65
2022-08-07T01:05:01.071Z,2.70
2022-08-07T01:07:06.757Z,3.25
2022-08-07T01:09:10.942Z,3.03
2022-08-07T01:12:09.453Z,3.88
2022-08-07T01:13:57.176Z,2.70
2022-08-07T01:16:05.519Z,4.05
2022-08-07T01:18:09.645Z,3.40
2022-08-07T01:20:16.653Z,3.35
2022-08-07T01:22:22.824Z,2.50
2022-08-07T01:24:32.869Z,2.80
2022-08-07T01:26:36.054Z,3.40
2022-08-07T01:28:40.345Z,3.15
2022-08-07T01:30:51.204Z,3.15
2022-08-07T01:32:54.766Z,2.90
2022-08-07T01:34:58.070Z,2.75
2022-08-07T01:37:01.902Z,5.90
2022-08-07T01:39:10.005Z,3.03
2022-08-07T01:41:14.406Z,3.10
2022-08-07T01:43:34.538Z,2.65
2022-08-07T01:45:42.437Z,2.88
2022-08-07T01:48:19.231Z,2.85
2022-08-07T01:50:13.200Z,3.53
2022-08-07T01:52:18.702Z,2.80
2022-08-07T01:54:33.003Z,3.33
2022-08-07T01:56:49.416Z,3.30
2022-08-07T01:58:56.903Z,2.95
2022-08-07T02:01:09.892Z,3.10
2022-08-07T02:03:32.128Z,2.88
2022-08-07T02:05:59.779Z,2.78
2022-08-07T02:08:07.142Z,2.70
2022-08-07T02:10:14.748Z,3.42
2022-08-07T02:12:29.414Z,3.47
2022-08-07T02:14:40.698Z,3.35
2022-08-07T02:16:45.359Z,3.30
2022-08-07T02:18:51.156Z,3.15
2022-08-07T02:20:57.457Z,2.95
2022-08-07T02:23:03.136Z,3.30
2022-08-07T02:25:17.428Z,3.38
2022-08-07T02:27:25.077Z,4.35
2022-08-07T02:29:29.361Z,3.10
2022-08-07T02:31:35.729Z,3.25
2022-08-07T02:33:57.487Z,3.20
2022-08-07T02:36:30.864Z,3.30
2022-08-07T02:38:31.446Z,3.00
2022-08-07T02:40:38.373Z,3.20
2022-08-07T02:42:43.741Z,3.08
2022-08-07T02:44:49.241Z,2.97
2022-08-07T02:46:54.500Z,3.10
2022-08-07T02:48:57.216Z,3.28
2022-08-07T02:51:06.752Z,5.80
2022-08-07T02:53:12.134Z,3.05
2022-08-07T02:55:28.463Z,3.30
2022-08-07T02:57:46.743Z,3.25
2022-08-07T02:59:55.187Z,3.47
2022-08-07T03:02:04.794Z,3.50
2022-08-07T03:04:12.979Z,3.30
2022-08-07T03:06:25.576Z,4.60
2022-08-07T03:08:35.329Z,3.15
2022-08-07T03:10:40.617Z,3.30
2022-08-07T03:12:51.987Z,3.40
2022-08-07T03:14:56.219Z,3.67
2022-08-07T03:16:59.180Z,3.67
2022-08-07T03:19:03.035Z,3.33
2022-08-07T03:21:08.446Z,3.42
2022-08-07T03:23:19.088Z,3.55
2022-08-07T03:25:23.788Z,3.97
2022-08-07T03:27:30.803Z,4.00
2022-08-07T03:29:49.377Z,4.45
2022-08-07T03:31:54.173Z,5.97
2022-08-07T03:34:02.236Z,3.63
2022-08-07T03:36:07.210Z,3.70
2022-08-07T03:38:13.368Z,3.35
2022-08-07T03:40:17.167Z,3.72
2022-08-07T03:42:20.682Z,3.58
2022-08-07T03:44:34.399Z,3.72
2022-08-07T03:47:10.786Z,3.33
2022-08-07T03:49:03.605Z,4.30
2022-08-07T03:51:07.119Z,3.30
2022-08-07T03:53:13.415Z,3.58
2022-08-07T03:55:16.327Z,4.10
2022-08-07T03:58:34.773Z,3.75
2022-08-07T03:59:46.745Z,3.92
2022-08-07T04:02:08.014Z,3.85
2022-08-07T04:04:17.219Z,4.30
2022-08-07T04:06:37.308Z,3.92
2022-08-07T04:08:41.934Z,3.40
2022-08-07T04:10:53.565Z,4.05
2022-08-07T04:13:01.577Z,4.22
2022-08-07T04:15:06.263Z,4.13
2022-08-07T04:17:20.207Z,3.85
2022-08-07T04:19:51.268Z,3.83
2022-08-07T04:21:59.453Z,4.20
2022-08-07T04:24:10.527Z,3.90
2022-08-07T04:26:33.227Z,3.58
2022-08-07T04:28:36.029Z,3.75
2022-08-07T04:30:55.642Z,4.55
2022-08-07T04:33:02.496Z,3.90
2022-08-07T04:37:20.320Z,4.47
2022-08-07T04:39:25.940Z,3.90
2022-08-07T04:41:28.823Z,3.90
2022-08-07T04:44:11.890Z,4.05
2022-08-07T04:46:12.326Z,3.30
2022-08-07T04:48:31.401Z,3.75
2022-08-07T04:50:39.438Z,4.10
2022-08-07T04:52:51.996Z,4.22
2022-08-07T04:55:00.867Z,4.00
2022-08-07T04:58:26.583Z,4.80
2022-08-07T05:00:10.946Z,4.72
2022-08-07T05:02:11.384Z,4.82
2022-08-07T05:04:29.838Z,4.93
2022-08-07T05:06:43.215Z,4.90
2022-08-07T05:09:00.924Z,5.35
2022-08-07T05:11:11.861Z,5.30
2022-08-07T05:14:54.376Z,5.18
2022-08-07T05:15:54.874Z,5.18
2022-08-07T05:18:01.391Z,5.22
2022-08-07T05:20:09.841Z,5.50
2022-08-07T05:22:26.620Z,5.25
2022-08-07T05:24:40.280Z,6.05
2022-08-07T05:26:47.166Z,5.63
2022-08-07T05:28:53.163Z,5.95
2022-08-07T05:30:58.026Z,4.97
2022-08-07T05:33:03.349Z,6.10
2022-08-07T05:35:12.048Z,6.30
2022-08-07T05:37:16.245Z,5.43
2022-08-07T05:40:06.793Z,6.30
2022-08-07T05:42:01.779Z,6.95
2022-08-07T05:44:08.415Z,6.28
2022-08-07T05:46:17.604Z,6.40
2022-08-07T05:48:26.386Z,7.20
2022-08-07T05:50:31.694Z,5.82
2022-08-07T05:52:35.549Z,5.70
2022-08-07T05:54:44.453Z,6.20
2022-08-07T05:56:58.806Z,8.05
2022-08-07T05:59:04.183Z,6.50
2022-08-07T06:01:12.014Z,6.10
2022-08-07T06:03:17.023Z,5.85
2022-08-07T06:05:25.901Z,6.28
2022-08-07T06:08:13.090Z,6.63
2022-08-07T06:10:05.082Z,6.88
2022-08-07T06:12:09.438Z,6.90
2022-08-07T06:14:21.471Z,6.70
2022-08-07T06:16:35.370Z,6.63
2022-08-07T06:18:39.455Z,7.17
2022-08-07T06:20:50.404Z,6.90
2022-08-07T06:23:46.826Z,7.30
2022-08-07T06:25:34.825Z,7.53
2022-08-07T06:27:43.919Z,7.07
2022-08-07T06:29:57.084Z,6.80
2022-08-07T06:32:01.487Z,7.33
2022-08-07T06:34:04.321Z,7.20
2022-08-07T06:36:13.963Z,6.77
2022-08-07T06:38:19.872Z,7.13
2022-08-07T06:40:23.555Z,8.13
2022-08-07T06:42:35.129Z,6.13
2022-08-07T06:44:39.948Z,6.90
2022-08-07T06:46:43.033Z,6.60
2022-08-07T06:48:56.611Z,5.93
2022-08-07T06:51:07.907Z,6.50
2022-08-07T06:53:18.541Z,6.20
2022-08-07T06:55:59.835Z,6.40
2022-08-07T06:58:02.505Z,5.30
2022-08-07T07:00:13.971Z,5.50
2022-08-07T07:02:48.687Z,6.00
2022-08-07T07:04:55.124Z,5.60
2022-08-07T07:07:01.247Z,4.40
2022-08-07T07:09:23.932Z,5.10
2022-08-07T07:12:08.672Z,4.73
2022-08-07T07:13:58.007Z,4.17
2022-08-07T07:16:10.404Z,6.57
2022-08-07T07:18:19.085Z,4.80
2022-08-07T07:20:46.489Z,4.00
2022-08-07T07:24:05.447Z,4.27
2022-08-07T07:26:34.379Z,4.23
2022-08-07T07:28:02.745Z,4.10
2022-08-07T07:30:09.876Z,3.80
2022-08-07T07:32:16.987Z,3.97
2022-08-07T07:34:30.696Z,4.30
2022-08-07T07:36:35.546Z,4.10
2022-08-07T07:38:46.084Z,4.67
2022-08-07T07:40:53.060Z,3.63
2022-08-07T07:42:58.751Z,3.10
2022-08-07T07:45:17.424Z,3.13
2022-08-07T07:47:26.659Z,3.30
2022-08-07T07:50:33.020Z,3.20
2022-08-07T07:51:59.765Z,2.90
2022-08-07T07:54:04.753Z,3.00
2022-08-07T07:56:09.360Z,2.70
2022-08-07T07:58:15.242Z,2.93
2022-08-07T08:00:29.870Z,2.80
2022-08-07T08:03:01.287Z,2.90
2022-08-07T08:05:03.902Z,2.93
2022-08-07T08:07:07.886Z,3.03
2022-08-07T08:09:13.789Z,2.83
2022-08-07T08:11:47.103Z,2.87
2022-08-07T08:13:54.805Z,2.63
2022-08-07T08:16:02.465Z,3.30
2022-08-07T08:18:17.787Z,2.70
2022-08-07T08:20:26.254Z,2.70
2022-08-07T08:22:57.357Z,2.80
2022-08-07T08:25:26.918Z,3.50
2022-08-07T08:27:56.744Z,2.47
2022-08-07T08:30:08.591Z,3.57
2022-08-07T08:32:25.247Z,2.50
2022-08-07T08:34:42.442Z,2.83
2022-08-07T08:36:49.329Z,2.90
2022-08-07T08:39:02.821Z,3.77
2022-08-07T08:41:14.207Z,3.53
2022-08-07T08:43:42.497Z,2.73
2022-08-07T08:45:59.111Z,2.80
2022-08-07T08:48:10.813Z,2.70
2022-08-07T08:50:35.025Z,5.80
2022-08-07T08:53:03.509Z,2.70
2022-08-07T08:55:20.817Z,2.80
2022-08-07T08:57:43.376Z,2.67
2022-08-07T08:59:54.876Z,2.70
2022-08-07T09:02:11.597Z,2.57
2022-08-07T09:04:25.995Z,2.90
2022-08-07T09:06:42.667Z,3.97
2022-08-07T09:08:57.927Z,2.93
2022-08-07T09:11:24.667Z,2.43
2022-08-07T09:13:52.029Z,2.83
2022-08-07T09:16:24.059Z,2.13
2022-08-07T09:18:53.019Z,2.33
2022-08-07T09:21:13.896Z,2.40
2022-08-07T09:24:52.405Z,2.40
2022-08-07T09:26:22.711Z,2.63
2022-08-07T09:30:05.008Z,2.53
2022-08-07T09:31:03.736Z,3.10
2022-08-07T09:33:40.870Z,2.37
2022-08-07T09:36:03.202Z,2.77
2022-08-07T09:38:15.150Z,2.60
2022-08-07T09:40:24.874Z,2.47
2022-08-07T09:42:42.785Z,3.30
2022-08-07T09:47:37.256Z,2.50
2022-08-07T09:47:58.263Z,2.30
2022-08-07T09:50:19.131Z,2.23
2022-08-07T09:52:33.597Z,2.33
2022-08-07T09:54:42.085Z,2.50
2022-08-07T09:57:25.062Z,2.53
2022-08-07T10:00:00.946Z,2.50
2022-08-07T10:02:29.525Z,2.10
2022-08-07T10:05:12.643Z,2.10
2022-08-07T10:07:53.576Z,2.20
2022-08-07T10:10:20.977Z,1.70
2022-08-07T10:12:52.999Z,2.00
2022-08-07T10:15:37.540Z,2.50
2022-08-07T10:18:02.865Z,2.03
2022-08-07T10:20:21.875Z,1.73
2022-08-07T10:22:50.951Z,2.43
2022-08-07T10:25:22.616Z,2.83
2022-08-07T10:27:47.444Z,2.87
2022-08-07T10:30:06.289Z,3.50
2022-08-07T10:32:51.560Z,2.03
2022-08-07T10:34:58.961Z,3.60
2022-08-07T10:37:13.893Z,2.80
2022-08-07T10:39:41.591Z,1.97
2022-08-07T10:42:00.336Z,2.83
2022-08-07T10:44:13.165Z,2.47
2022-08-07T10:46:24.155Z,2.13
2022-08-07T10:48:41.589Z,1.90
2022-08-07T10:50:51.566Z,2.10
2022-08-07T10:53:05.285Z,2.60
2022-08-07T10:55:27.006Z,2.30
2022-08-07T10:57:51.610Z,2.10
2022-08-07T11:00:06.635Z,2.30
2022-08-07T11:02:32.833Z,2.10
2022-08-07T11:04:53.149Z,1.90
2022-08-07T11:07:04.595Z,4.17
2022-08-07T11:10:07.909Z,1.80
2022-08-07T11:11:54.446Z,1.97
2022-08-07T11:14:43.988Z,3.50
2022-08-07T11:16:35.272Z,1.77
2022-08-07T11:18:42.367Z,1.80
2022-08-07T11:20:52.510Z,2.67
2022-08-07T11:23:04.266Z,2.17
2022-08-07T11:25:14.899Z,2.07
2022-08-07T11:28:00.844Z,2.30
2022-08-07T11:30:17.637Z,1.90
2022-08-07T11:32:25.970Z,2.30
2022-08-07T11:34:37.816Z,2.50
2022-08-07T11:36:57.511Z,2.30
2022-08-07T11:39:14.553Z,2.37
2022-08-07T11:42:00.111Z,1.90
2022-08-07T11:44:12.219Z,2.90
2022-08-07T11:46:33.539Z,1.80
2022-08-07T11:49:50.658Z,2.10
2022-08-07T11:51:41.793Z,2.27
2022-08-07T11:54:00.724Z,2.27
2022-08-07T11:56:27.120Z,2.57
2022-08-07T11:58:42.030Z,2.77
2022-08-07T12:01:02.510Z,2.40
2022-08-07T12:03:46.385Z,3.40
2022-08-07T12:06:37.512Z,2.23
2022-08-07T12:08:34.877Z,3.10
2022-08-07T12:10:41.733Z,2.20
2022-08-07T12:12:49.110Z,3.40
2022-08-07T12:15:01.387Z,2.10
2022-08-07T12:17:19.907Z,2.20
2022-08-07T12:19:35.734Z,2.73
2022-08-07T12:22:37.406Z,2.13
2022-08-07T12:24:37.691Z,2.30
2022-08-07T12:26:46.825Z,2.40
2022-08-07T12:28:58.391Z,2.90
2022-08-07T12:31:09.355Z,2.40
2022-08-07T12:33:18.950Z,2.03
2022-08-07T12:35:36.121Z,2.40
2022-08-07T12:38:08.975Z,2.00
2022-08-07T12:40:14.844Z,2.20
2022-08-07T12:42:32.278Z,2.20
2022-08-07T12:44:39.587Z,2.50
2022-08-07T12:47:01.033Z,2.97
2022-08-07T12:49:25.367Z,2.30
2022-08-07T12:51:51.543Z,1.93
2022-08-07T12:54:36.920Z,2.20
2022-08-07T12:56:51.109Z,2.10
2022-08-07T12:59:00.721Z,2.57
2022-08-07T13:01:09.810Z,3.60
2022-08-07T13:03:54.757Z,3.23
2022-08-07T13:06:21.562Z,2.07
2022-08-07T13:08:44.695Z,4.63
2022-08-07T13:11:06.511Z,2.33
2022-08-07T13:13:48.864Z,2.63
2022-08-07T13:16:01.680Z,3.03
2022-08-07T13:18:25.884Z,2.63
2022-08-07T13:20:41.220Z,2.30
2022-08-07T13:22:53.788Z,2.67
2022-08-07T13:25:02.461Z,2.17
2022-08-07T13:27:13.311Z,2.83
2022-08-07T13:29:21.620Z,2.23
2022-08-07T13:31:46.283Z,2.40
2022-08-07T13:34:33.726Z,2.73
2022-08-07T13:36:29.265Z,3.40
2022-08-07T13:38:42.850Z,2.43
2022-08-07T13:40:58.274Z,2.77
2022-08-07T13:43:06.464Z,3.30
2022-08-07T13:46:07.282Z,4.43
2022-08-07T13:48:06.076Z,3.27
2022-08-07T13:50:35.519Z,2.67
2022-08-07T13:52:36.206Z,2.87
2022-08-07T13:54:49.261Z,2.43
2022-08-07T13:56:59.769Z,2.13
2022-08-07T13:59:05.577Z,2.37
2022-08-07T14:01:15.705Z,2.70
2022-08-07T14:03:29.882Z,2.20
2022-08-07T14:05:51.965Z,2.73
2022-08-07T14:07:59.441Z,2.30
2022-08-07T14:10:21.608Z,2.40
2022-08-07T14:12:41.518Z,2.30
2022-08-07T14:14:49.316Z,2.50
2022-08-07T14:16:56.295Z,2.50
2022-08-07T14:19:04.620Z,1.93
2022-08-07T14:22:00.921Z,2.60
2022-08-07T14:23:59.979Z,2.40
2022-08-07T14:26:05.494Z,2.43
2022-08-07T14:28:15.078Z,2.20
2022-08-07T14:30:32.703Z,2.33
2022-08-07T14:32:42.883Z,2.40
2022-08-07T14:34:47.970Z,2.17
2022-08-07T14:36:56.335Z,2.40
2022-08-07T14:39:02.404Z,2.70
2022-08-07T14:41:14.677Z,2.30
2022-08-07T14:48:11.372Z,2.40
2022-08-07T14:50:24.494Z,2.43
2022-08-07T14:52:28.941Z,2.50
2022-08-07T14:54:35.741Z,2.53
2022-08-07T14:56:50.671Z,3.63
2022-08-07T14:58:58.486Z,3.40
2022-08-07T15:01:21.484Z,2.30
2022-08-07T15:03:52.358Z,2.40
2022-08-07T15:05:55.155Z,2.07
2022-08-07T15:08:12.612Z,2.73
2022-08-07T15:10:26.391Z,2.20
2022-08-07T15:12:36.947Z,2.40
2022-08-07T15:14:57.945Z,2.50
2022-08-07T15:17:04.268Z,2.40
2022-08-07T15:19:09.333Z,2.70
2022-08-07T15:25:13.545Z,2.40
2022-08-07T15:26:21.143Z,2.57
2022-08-07T15:28:36.215Z,2.57
2022-08-07T15:31:05.005Z,2.80
2022-08-07T15:33:19.501Z,2.40
2022-08-07T15:35:40.706Z,2.60
2022-08-07T15:38:18.369Z,3.00
2022-08-07T15:40:34.947Z,2.63
2022-08-07T15:42:51.736Z,2.40
2022-08-07T15:44:58.062Z,2.47
2022-08-07T15:47:09.043Z,2.20
2022-08-07T15:49:25.409Z,2.27
2022-08-07T15:54:04.285Z,2.73
2022-08-07T15:56:09.757Z,5.33
2022-08-07T15:58:20.778Z,2.80
2022-08-07T16:00:34.017Z,2.50
2022-08-07T16:02:46.785Z,3.10
2022-08-07T16:04:54.236Z,2.90
2022-08-07T16:07:04.726Z,2.73
2022-08-07T16:09:22.302Z,2.73
2022-08-07T16:11:40.153Z,3.60
2022-08-07T16:14:03.085Z,4.20
2022-08-07T16:16:43.269Z,2.90
2022-08-07T16:18:51.745Z,2.60
2022-08-07T16:21:43.827Z,2.70
2022-08-07T16:23:53.532Z,3.23
2022-08-07T16:26:06.241Z,2.53
2022-08-07T16:30:08.755Z,2.50
2022-08-07T16:30:53.106Z,2.67
2022-08-07T16:34:01.771Z,3.53
2022-08-07T16:35:52.324Z,2.60
2022-08-07T16:38:09.634Z,2.73
2022-08-07T16:40:57.342Z,2.70
2022-08-07T16:43:11.947Z,2.77
2022-08-07T16:46:47.065Z,2.80
2022-08-07T16:48:58.517Z,2.67
2022-08-07T16:51:54.584Z,2.63
2022-08-07T16:54:06.172Z,2.90
2022-08-07T16:56:19.921Z,2.80
2022-08-07T16:58:33.708Z,2.63
2022-08-07T17:01:15.588Z,2.70
2022-08-07T17:03:58.038Z,5.10
2022-08-07T17:06:30.033Z,2.63
2022-08-07T17:09:04.404Z,2.97
2022-08-07T17:11:05.653Z,3.20
2022-08-07T17:13:41.600Z,2.63
2022-08-07T17:16:06.761Z,4.83
2022-08-07T17:18:18.327Z,2.90
2022-08-07T17:20:32.678Z,2.60
2022-08-07T17:22:42.448Z,3.13
2022-08-07T17:24:56.779Z,2.60
2022-08-07T17:27:04.701Z,2.60
2022-08-07T17:30:12.897Z,3.00
2022-08-07T17:32:02.831Z,2.80
2022-08-07T17:34:33.342Z,2.70
2022-08-07T17:36:57.753Z,2.93
2022-08-07T17:39:10.142Z,2.70
2022-08-07T17:42:03.506Z,2.70
2022-08-07T17:44:01.887Z,2.90
2022-08-07T17:46:16.245Z,2.60
2022-08-07T17:48:30.885Z,2.53
2022-08-07T17:50:47.320Z,2.87
2022-08-07T17:52:59.088Z,2.70
2022-08-07T17:55:06.293Z,2.60
2022-08-07T17:57:20.035Z,2.70
2022-08-07T17:59:26.660Z,3.37
2022-08-07T18:01:48.399Z,2.40
2022-08-07T18:04:16.337Z,2.63
2022-08-07T18:06:36.823Z,2.60
2022-08-07T18:09:02.316Z,4.57
2022-08-07T18:12:07.152Z,2.57
2022-08-07T18:13:45.912Z,2.83
2022-08-07T18:16:08.188Z,3.00
2022-08-07T18:18:46.070Z,3.43
2022-08-07T18:21:11.604Z,3.00
2022-08-07T18:23:41.974Z,2.43
2022-08-07T18:25:40.605Z,3.03
2022-08-07T18:28:09.421Z,2.60
2022-08-07T18:30:31.169Z,2.50
2022-08-07T18:33:17.143Z,2.67
2022-08-07T18:35:27.149Z,2.57
2022-08-07T18:38:55.755Z,3.13
2022-08-07T18:40:42.517Z,2.50
2022-08-07T18:43:01.386Z,2.57
2022-08-07T18:45:42.728Z,2.47
2022-08-07T18:47:44.575Z,2.30
2022-08-07T18:50:31.361Z,3.17
2022-08-07T18:52:52.982Z,2.97
2022-08-07T18:55:40.577Z,2.43
2022-08-07T18:57:44.478Z,3.23
2022-08-07T19:00:33.383Z,2.53
2022-08-07T19:02:43.533Z,2.47
2022-08-07T19:05:15.433Z,2.40
2022-08-07T19:07:34.261Z,2.13
2022-08-07T19:09:57.847Z,2.83
2022-08-07T19:12:11.886Z,4.67
2022-08-07T19:14:20.255Z,2.40
2022-08-07T19:17:01.403Z,2.43
2022-08-07T19:19:01.281Z,2.40
2022-08-07T19:21:47.765Z,3.03
2022-08-07T19:23:58.213Z,2.70
2022-08-07T19:26:25.101Z,3.17
2022-08-07T19:28:57.108Z,2.80
2022-08-07T19:31:41.455Z,2.73
2022-08-07T19:33:19.465Z,3.00
2022-08-07T19:35:38.715Z,3.23
2022-08-07T19:37:55.563Z,2.60
2022-08-07T19:40:04.059Z,2.63
2022-08-07T19:42:24.697Z,3.00
2022-08-07T19:44:34.544Z,2.73
2022-08-07T19:46:40.933Z,3.10
2022-08-07T19:49:05.470Z,2.93
2022-08-07T19:51:20.626Z,2.60
2022-08-07T19:54:35.359Z,2.33
2022-08-07T19:55:58.529Z,2.53
2022-08-07T19:58:13.931Z,2.67
2022-08-07T20:00:28.169Z,3.30
2022-08-07T20:02:35.552Z,2.40
2022-08-07T20:04:48.971Z,2.63
2022-08-07T20:06:55.869Z,3.00
2022-08-07T20:09:01.798Z,3.10
2022-08-07T20:11:10.242Z,2.43
2022-08-07T20:13:23.526Z,2.40
2022-08-07T20:15:36.906Z,2.70
2022-08-07T20:17:41.724Z,2.27
2022-08-07T20:19:58.440Z,2.40
2022-08-07T20:22:03.340Z,3.07
2022-08-07T20:24:16.360Z,2.50
2022-08-07T20:26:20.565Z,2.73
2022-08-07T20:28:36.792Z,2.83
2022-08-07T20:30:46.862Z,3.17
2022-08-07T20:32:51.413Z,3.00
2022-08-07T20:34:58.368Z,2.23
2022-08-07T20:37:06.074Z,2.40
2022-08-07T20:40:01.362Z,2.30
2022-08-07T20:41:38.284Z,3.03
2022-08-07T20:43:47.787Z,2.40
2022-08-07T20:46:27.530Z,2.80
2022-08-07T20:48:28.738Z,3.53
2022-08-07T20:50:34.773Z,2.37
2022-08-07T20:52:51.297Z,2.30
2022-08-07T20:54:57.043Z,2.80
2022-08-07T20:57:04.390Z,2.60
2022-08-07T21:00:04.879Z,2.30
2022-08-07T21:01:45.768Z,2.80
2022-08-07T21:04:19.742Z,2.40
2022-08-07T21:06:28.017Z,2.60
2022-08-07T21:08:37.599Z,3.37
2022-08-07T21:10:44.104Z,2.40
2022-08-07T21:12:49.272Z,2.50
2022-08-07T21:14:56.654Z,2.80
2022-08-07T21:18:00.751Z,2.33
2022-08-07T21:19:32.349Z,3.47
2022-08-07T21:21:56.980Z,2.47
2022-08-07T21:24:06.850Z,2.70
2022-08-07T21:26:27.044Z,2.30
2022-08-07T21:28:50.014Z,2.63
2022-08-07T21:31:03.445Z,2.20
2022-08-07T21:33:13.908Z,2.60
2022-08-07T21:35:34.611Z,2.20
2022-08-07T21:38:00.153Z,2.60
2022-08-07T21:40:08.601Z,2.50
2022-08-07T21:42:42.802Z,2.30
2022-08-07T21:44:54.318Z,2.97
2022-08-07T21:47:02.236Z,2.40
2022-08-07T21:49:14.522Z,2.90
2022-08-07T21:51:33.245Z,3.20
2022-08-07T21:54:07.751Z,2.40
2022-08-07T21:56:16.769Z,3.17
2022-08-07T21:58:45.926Z,3.80
2022-08-07T22:00:54.896Z,2.73
2022-08-07T22:03:09.599Z,2.50
2022-08-07T22:05:22.099Z,3.03
2022-08-07T22:07:58.864Z,2.37
2022-08-07T22:10:07.021Z,3.30
2022-08-07T22:12:17.513Z,2.63
2022-08-07T22:14:34.703Z,2.60
2022-08-07T22:16:46.838Z,2.50
2022-08-07T22:18:59.143Z,3.00
2022-08-07T22:21:14.300Z,2.47
2022-08-07T22:23:23.180Z,2.40
2022-08-07T22:25:36.573Z,2.33
2022-08-07T22:28:08.348Z,2.27
2022-08-07T22:30:14.089Z,2.40
2022-08-07T22:32:23.056Z,3.33
2022-08-07T22:34:35.728Z,2.23
2022-08-07T22:36:48.843Z,2.83
2022-08-07T22:39:00.262Z,2.67
2022-08-07T22:41:13.165Z,2.60
2022-08-07T22:43:18.783Z,2.43
2022-08-07T22:46:40.662Z,3.20
2022-08-07T22:48:31.310Z,3.20
2022-08-07T22:50:46.497Z,2.50
2022-08-07T22:53:05.268Z,5.90
2022-08-07T22:55:34.236Z,2.67
2022-08-07T22:57:59.340Z,2.53
2022-08-07T23:00:07.463Z,2.77
2022-08-07T23:02:30.957Z,2.83
2022-08-07T23:04:58.452Z,2.63
2022-08-07T23:07:41.414Z,3.07
2022-08-07T23:10:04.160Z,2.43
2022-08-07T23:12:34.521Z,1.97
2022-08-07T23:14:52.936Z,2.63
2022-08-07T23:17:15.878Z,2.40
2022-08-07T23:19:52.016Z,2.17
2022-08-07T23:22:16.887Z,2.67
2022-08-07T23:24:38.961Z,2.50
2022-08-07T23:27:01.237Z,2.37
2022-08-07T23:29:43.694Z,2.97
2022-08-07T23:34:19.695Z,2.63
2022-08-07T23:34:52.597Z,2.97
2022-08-07T23:37:20.414Z,2.70
2022-08-07T23:39:41.430Z,3.30
2022-08-07T23:42:04.165Z,2.70
2022-08-07T23:44:29.484Z,2.57
2022-08-07T23:46:50.340Z,2.47
2022-08-07T23:49:16.275Z,2.67
2022-08-07T23:53:01.141Z,2.60
2022-08-07T23:53:55.034Z,2.73
2022-08-07T23:56:11.702Z,2.80
2022-08-07T23:58:25.026Z,2.70
